Roseville, Illinois
Current Conditions -  °F | °C
As of 3:15 AM on Wednesday 28 Jan 2015 (Local Time) from KMQB Reporting Station
Haze Haze  
Wind Chill: 20°   Ceiling: Unl
Heat Index: 28°   Visibility: 5mi
Dew Point: 27°   Wind: 8mph
Humidity: 95%   Direction: 130°SE
Pressure: 30.24"   Gusts: NA
Location:  40.73°N, 90.66°W
Report Text: KMQB 280915Z AUTO 13007KT 5SM BR SCT016 M02/M03 A3024 RMK AO2 T10201027
Loading
Personal Weather Stations






























Interactive Weather Map New forecast layout! Learn more

10-Day Weather Forecast

Advertisements
Track Severe Weather on mobile